createdAt,value
2022-12-07T00:00:50.709Z,75.53
2022-12-07T00:01:50.741Z,75.19
2022-12-07T00:02:50.686Z,76.33
2022-12-07T00:03:50.746Z,76.88
2022-12-07T00:04:50.665Z,75.39
2022-12-07T00:05:50.656Z,75.48
2022-12-07T00:06:50.634Z,75.30
2022-12-07T00:07:50.686Z,77.30
2022-12-07T00:08:50.605Z,78.77
2022-12-07T00:09:50.625Z,77.47
2022-12-07T00:10:50.577Z,77.73
2022-12-07T00:11:50.571Z,78.83
2022-12-07T00:12:50.555Z,76.83
2022-12-07T00:13:50.546Z,76.11
2022-12-07T00:14:50.525Z,76.61
2022-12-07T00:15:50.543Z,76.01
2022-12-07T00:16:50.583Z,76.22
2022-12-07T00:17:50.506Z,77.50
2022-12-07T00:18:50.474Z,77.41
2022-12-07T00:19:50.474Z,76.57
2022-12-07T00:20:50.446Z,77.28
2022-12-07T00:21:50.478Z,77.54
2022-12-07T00:22:50.424Z,77.24
2022-12-07T00:23:50.413Z,76.73
2022-12-07T00:24:50.392Z,76.57
2022-12-07T00:25:50.392Z,76.28
2022-12-07T00:26:50.364Z,76.33
2022-12-07T00:27:50.394Z,77.11
2022-12-07T00:28:50.345Z,75.54
2022-12-07T00:29:51.354Z,75.50
2022-12-07T00:30:50.314Z,75.67
2022-12-07T00:31:50.372Z,75.61
2022-12-07T00:32:50.293Z,75.37
2022-12-07T00:33:50.300Z,75.98
2022-12-07T00:34:50.264Z,75.47
2022-12-07T00:35:50.276Z,75.40
2022-12-07T00:36:50.233Z,74.97
2022-12-07T00:37:50.232Z,75.06
2022-12-07T00:38:50.215Z,75.06
2022-12-07T00:39:50.242Z,75.22
2022-12-07T00:40:50.183Z,75.86
2022-12-07T00:41:50.181Z,75.20
2022-12-07T00:42:50.161Z,74.59
2022-12-07T00:43:50.156Z,74.32
2022-12-07T00:44:50.132Z,74.18
2022-12-07T00:45:50.184Z,74.33
2022-12-07T00:46:50.111Z,74.45
2022-12-07T00:47:50.094Z,74.81
2022-12-07T00:48:50.105Z,74.84
2022-12-07T00:49:50.084Z,74.13
2022-12-07T00:50:50.051Z,74.11
2022-12-07T00:51:50.060Z,74.11
2022-12-07T00:52:50.030Z,74.09
2022-12-07T00:53:50.032Z,73.91
2022-12-07T00:54:50.006Z,74.13
2022-12-07T00:55:49.990Z,73.95
2022-12-07T00:56:49.980Z,74.24
2022-12-07T00:57:49.992Z,74.30
2022-12-07T00:58:49.950Z,73.90
2022-12-07T00:59:49.961Z,73.69
2022-12-07T01:00:49.922Z,74.06
2022-12-07T01:01:50.055Z,74.07
2022-12-07T01:02:49.924Z,74.12
2022-12-07T01:03:49.899Z,73.93
2022-12-07T01:04:49.881Z,73.92
2022-12-07T01:05:49.863Z,73.89
2022-12-07T01:06:49.847Z,73.82
2022-12-07T01:07:49.871Z,73.79
2022-12-07T01:08:49.819Z,73.97
2022-12-07T01:09:50.029Z,74.15
2022-12-07T01:10:49.792Z,74.10
2022-12-07T01:11:49.789Z,74.04
2022-12-07T01:12:49.760Z,74.17
2022-12-07T01:13:49.760Z,74.23
2022-12-07T01:14:49.740Z,74.28
2022-12-07T01:15:49.749Z,74.09
2022-12-07T01:16:49.812Z,74.14
2022-12-07T01:17:49.700Z,74.21
2022-12-07T01:18:49.696Z,74.47
2022-12-07T01:19:49.690Z,74.45
2022-12-07T01:20:49.660Z,74.61
2022-12-07T01:21:49.687Z,74.81
2022-12-07T01:22:49.640Z,74.83
2022-12-07T01:23:49.629Z,74.71
2022-12-07T01:24:49.609Z,74.77
2022-12-07T01:25:49.606Z,74.90
2022-12-07T01:26:49.588Z,74.85
2022-12-07T01:27:49.598Z,74.77
2022-12-07T01:28:49.558Z,74.76
2022-12-07T01:29:49.559Z,74.85
2022-12-07T01:30:49.604Z,74.87
2022-12-07T01:31:49.520Z,75.14
2022-12-07T01:32:49.506Z,74.96
2022-12-07T01:33:49.518Z,74.75
2022-12-07T01:34:49.478Z,74.80
2022-12-07T01:35:49.469Z,74.94
2022-12-07T01:36:49.450Z,75.03
2022-12-07T01:37:49.450Z,75.08
2022-12-07T01:38:49.428Z,74.95
2022-12-07T01:39:49.447Z,75.00
2022-12-07T01:40:49.398Z,75.18
2022-12-07T01:41:49.389Z,75.18
2022-12-07T01:42:49.378Z,75.36
2022-12-07T01:43:49.371Z,75.31
2022-12-07T01:44:49.357Z,75.26
2022-12-07T01:45:49.413Z,75.39
2022-12-07T01:46:49.318Z,75.30
2022-12-07T01:47:49.308Z,75.43
2022-12-07T01:48:49.298Z,75.33
2022-12-07T01:49:49.292Z,75.24
2022-12-07T01:50:49.268Z,75.32
2022-12-07T01:51:49.288Z,75.33
2022-12-07T01:52:49.248Z,75.49
2022-12-07T01:53:49.236Z,75.50
2022-12-07T01:54:49.218Z,75.44
2022-12-07T01:55:49.207Z,75.44
2022-12-07T01:56:49.195Z,75.65
2022-12-07T01:57:49.208Z,75.74
2022-12-07T01:58:49.166Z,75.75
2022-12-07T01:59:49.172Z,75.84
2022-12-07T02:00:49.138Z,75.94
2022-12-07T02:01:49.168Z,75.91
2022-12-07T02:02:49.183Z,75.91
2022-12-07T02:03:49.140Z,75.87
2022-12-07T02:04:49.084Z,75.94
2022-12-07T02:05:49.079Z,76.00
2022-12-07T02:06:49.067Z,76.09
2022-12-07T02:07:49.133Z,76.17
2022-12-07T02:08:49.035Z,76.20
2022-12-07T02:09:49.072Z,76.30
2022-12-07T02:10:49.008Z,76.26
2022-12-07T02:11:48.996Z,76.24
2022-12-07T02:12:48.979Z,76.40
2022-12-07T02:13:48.965Z,76.28
2022-12-07T02:14:48.961Z,76.51
2022-12-07T02:15:49.031Z,76.73
2022-12-07T02:16:48.937Z,76.81
2022-12-07T02:17:48.922Z,77.12
2022-12-07T02:18:48.907Z,76.79
2022-12-07T02:19:48.904Z,76.66
2022-12-07T02:20:48.885Z,76.63
2022-12-07T02:21:48.885Z,76.78
2022-12-07T02:22:48.848Z,76.78
2022-12-07T02:23:48.836Z,76.78
2022-12-07T02:24:48.826Z,76.94
2022-12-07T02:25:48.815Z,76.94
2022-12-07T02:26:48.796Z,76.85
2022-12-07T02:27:48.807Z,76.85
2022-12-07T02:28:48.773Z,76.90
2022-12-07T02:29:48.774Z,76.85
2022-12-07T02:30:48.777Z,76.91
2022-12-07T02:31:48.736Z,76.91
2022-12-07T02:32:48.714Z,76.80
2022-12-07T02:33:48.733Z,76.94
2022-12-07T02:34:48.693Z,76.95
2022-12-07T02:35:48.694Z,76.88
2022-12-07T02:36:48.665Z,76.76
2022-12-07T02:37:48.654Z,76.86
2022-12-07T02:38:48.643Z,76.92
2022-12-07T02:39:48.663Z,77.12
2022-12-07T02:40:48.615Z,77.01
2022-12-07T02:41:48.602Z,76.92
2022-12-07T02:42:48.592Z,76.95
2022-12-07T02:43:48.582Z,76.76
2022-12-07T02:44:48.564Z,76.85
2022-12-07T02:45:48.577Z,77.03
2022-12-07T02:46:48.602Z,77.17
2022-12-07T02:47:48.530Z,77.04
2022-12-07T02:48:48.514Z,76.78
2022-12-07T02:49:48.511Z,76.77
2022-12-07T02:50:48.483Z,76.80
2022-12-07T02:51:48.492Z,76.79
2022-12-07T02:52:48.462Z,76.68
2022-12-07T02:53:48.453Z,76.80
2022-12-07T02:54:48.432Z,76.88
2022-12-07T02:55:48.421Z,76.66
2022-12-07T02:56:48.411Z,76.92
2022-12-07T02:57:48.422Z,76.91
2022-12-07T02:58:48.382Z,76.71
2022-12-07T02:59:48.382Z,76.71
2022-12-07T03:00:48.351Z,76.72
2022-12-07T03:01:48.431Z,76.63
2022-12-07T03:02:48.434Z,76.58
2022-12-07T03:03:48.343Z,76.69
2022-12-07T03:04:48.300Z,76.71
2022-12-07T03:05:48.293Z,76.64
2022-12-07T03:06:48.271Z,76.89
2022-12-07T03:07:48.287Z,76.73
2022-12-07T03:08:48.244Z,76.57
2022-12-07T03:09:48.269Z,76.64
2022-12-07T03:10:48.231Z,76.68
2022-12-07T03:11:48.211Z,76.56
2022-12-07T03:12:48.199Z,76.52
2022-12-07T03:13:48.191Z,76.60
2022-12-07T03:14:48.173Z,76.63
2022-12-07T03:15:48.203Z,76.61
2022-12-07T03:16:48.140Z,76.33
2022-12-07T03:17:48.138Z,76.27
2022-12-07T03:18:48.121Z,76.31
2022-12-07T03:19:48.120Z,76.55
2022-12-07T03:20:48.091Z,76.63
2022-12-07T03:21:48.111Z,76.60
2022-12-07T03:22:48.059Z,76.86
2022-12-07T03:23:48.054Z,76.57
2022-12-07T03:24:48.029Z,76.61
2022-12-07T03:25:48.028Z,76.60
2022-12-07T03:26:48.010Z,76.46
2022-12-07T03:27:48.019Z,76.49
2022-12-07T03:28:47.989Z,76.57
2022-12-07T03:29:47.989Z,76.57
2022-12-07T03:30:48.007Z,76.44
2022-12-07T03:31:47.958Z,76.39
2022-12-07T03:32:47.936Z,76.23
2022-12-07T03:33:47.948Z,76.32
2022-12-07T03:34:47.908Z,76.23
2022-12-07T03:35:47.900Z,76.36
2022-12-07T03:36:47.878Z,76.48
2022-12-07T03:37:47.868Z,76.56
2022-12-07T03:38:47.849Z,76.38
2022-12-07T03:39:47.879Z,76.45
2022-12-07T03:40:47.827Z,76.41
2022-12-07T03:41:47.818Z,76.62
2022-12-07T03:42:47.798Z,76.62
2022-12-07T03:43:47.796Z,76.70
2022-12-07T03:44:47.777Z,76.71
2022-12-07T03:45:47.799Z,76.69
2022-12-07T03:46:47.891Z,76.61
2022-12-07T03:47:47.738Z,76.61
2022-12-07T03:48:47.717Z,76.80
2022-12-07T03:49:47.707Z,76.73
2022-12-07T03:50:47.696Z,76.76
2022-12-07T03:51:47.708Z,76.90
2022-12-07T03:52:47.666Z,77.15
2022-12-07T03:53:47.657Z,77.03
2022-12-07T03:54:47.646Z,76.92
2022-12-07T03:55:47.640Z,76.89
2022-12-07T03:56:47.608Z,76.94
2022-12-07T03:57:47.639Z,76.82
2022-12-07T03:58:47.586Z,76.81
2022-12-07T03:59:47.577Z,76.74
2022-12-07T04:00:47.557Z,76.82
2022-12-07T04:01:47.612Z,76.66
2022-12-07T04:02:47.586Z,76.70
2022-12-07T04:03:47.557Z,76.76
2022-12-07T04:04:47.517Z,76.80
2022-12-07T04:05:47.504Z,76.90
2022-12-07T04:06:47.485Z,76.98
2022-12-07T04:07:47.497Z,76.91
2022-12-07T04:08:47.456Z,76.86
2022-12-07T04:09:47.466Z,77.00
2022-12-07T04:10:47.425Z,76.86
2022-12-07T04:11:47.425Z,76.74
2022-12-07T04:12:47.405Z,76.84
2022-12-07T04:13:47.395Z,76.74
2022-12-07T04:14:47.378Z,76.83
2022-12-07T04:15:47.459Z,76.84
2022-12-07T04:16:47.388Z,76.79
2022-12-07T04:17:47.346Z,76.80
2022-12-07T04:18:47.322Z,76.97
2022-12-07T04:19:47.324Z,77.03
2022-12-07T04:20:47.305Z,76.95
2022-12-07T04:21:47.309Z,77.05
2022-12-07T04:22:47.283Z,77.25
2022-12-07T04:23:47.264Z,76.99
2022-12-07T04:24:47.245Z,77.06
2022-12-07T04:25:47.245Z,77.03
2022-12-07T04:26:47.224Z,77.12
2022-12-07T04:27:47.232Z,77.00
2022-12-07T04:28:47.206Z,77.03
2022-12-07T04:29:47.183Z,77.13
2022-12-07T04:30:47.166Z,77.27
2022-12-07T04:31:47.212Z,77.26
2022-12-07T04:32:47.147Z,77.28
2022-12-07T04:33:47.172Z,77.20
2022-12-07T04:34:49.411Z,77.15
2022-12-07T04:35:48.103Z,77.21
2022-12-07T04:36:47.105Z,77.31
2022-12-07T04:37:47.088Z,77.24
2022-12-07T04:38:47.073Z,77.41
2022-12-07T04:39:47.064Z,77.41
2022-12-07T04:40:47.043Z,77.30
2022-12-07T04:41:47.023Z,77.18
2022-12-07T04:42:47.015Z,77.30
2022-12-07T04:43:46.994Z,77.50
2022-12-07T04:44:46.992Z,77.39
2022-12-07T04:45:46.993Z,77.29
2022-12-07T04:46:47.038Z,77.30
2022-12-07T04:47:46.945Z,77.32
2022-12-07T04:48:46.934Z,77.31
2022-12-07T04:49:46.922Z,77.37
2022-12-07T04:50:46.903Z,77.26
2022-12-07T04:51:46.920Z,77.35
2022-12-07T04:52:46.883Z,77.30
2022-12-07T04:53:46.874Z,77.33
2022-12-07T04:54:46.852Z,77.42
2022-12-07T04:55:46.853Z,77.32
2022-12-07T04:56:46.830Z,77.33
2022-12-07T04:57:46.851Z,77.25
2022-12-07T04:58:46.799Z,77.18
2022-12-07T04:59:46.832Z,77.26
2022-12-07T05:00:46.837Z,77.30
2022-12-07T05:01:46.804Z,77.29
2022-12-07T05:02:46.750Z,77.31
2022-12-07T05:03:46.761Z,77.41
2022-12-07T05:04:46.731Z,77.43
2022-12-07T05:05:46.712Z,77.22
2022-12-07T05:06:46.692Z,77.19
2022-12-07T05:07:46.755Z,77.21
2022-12-07T05:08:46.681Z,77.54
2022-12-07T05:09:46.681Z,77.51
2022-12-07T05:10:46.642Z,77.35
2022-12-07T05:11:46.640Z,77.26
2022-12-07T05:12:46.626Z,77.22
2022-12-07T05:13:46.612Z,77.23
2022-12-07T05:14:46.597Z,77.24
2022-12-07T05:15:46.609Z,78.04
2022-12-07T05:16:46.636Z,78.21
2022-12-07T05:17:46.559Z,78.00
2022-12-07T05:18:46.541Z,78.54
2022-12-07T05:19:46.530Z,78.71
2022-12-07T05:20:46.512Z,78.82
2022-12-07T05:21:46.525Z,78.23
2022-12-07T05:22:46.487Z,78.02
2022-12-07T05:23:46.480Z,78.16
2022-12-07T05:24:46.455Z,78.86
2022-12-07T05:25:46.450Z,79.01
2022-12-07T05:26:46.431Z,78.86
2022-12-07T05:27:46.449Z,78.59
2022-12-07T05:28:46.407Z,79.01
2022-12-07T05:29:46.400Z,79.45
2022-12-07T05:30:46.379Z,79.25
2022-12-07T05:31:46.476Z,79.23
2022-12-07T05:32:46.358Z,79.38
2022-12-07T05:33:46.375Z,79.87
2022-12-07T05:34:46.329Z,80.17
2022-12-07T05:35:46.318Z,80.54
2022-12-07T05:36:46.308Z,80.56
2022-12-07T05:37:46.289Z,80.14
2022-12-07T05:38:46.269Z,80.64
2022-12-07T05:39:46.288Z,80.92
2022-12-07T05:40:46.247Z,80.60
2022-12-07T05:41:46.247Z,80.94
2022-12-07T05:42:46.218Z,81.10
2022-12-07T05:43:46.208Z,81.27
2022-12-07T05:44:46.200Z,81.62
2022-12-07T05:45:46.272Z,81.43
2022-12-07T05:46:46.167Z,81.69
2022-12-07T05:47:46.157Z,81.73
2022-12-07T05:48:46.138Z,81.97
2022-12-07T05:49:46.137Z,81.95
2022-12-07T05:50:46.117Z,81.92
2022-12-07T05:51:46.157Z,82.21
2022-12-07T05:52:46.098Z,82.14
2022-12-07T05:53:46.087Z,81.36
2022-12-07T05:54:46.065Z,80.86
2022-12-07T05:55:46.056Z,80.72
2022-12-07T05:56:46.048Z,80.18
2022-12-07T05:57:46.056Z,79.97
2022-12-07T05:58:46.015Z,80.51
2022-12-07T05:59:45.998Z,80.08
2022-12-07T06:00:50.842Z,80.50
2022-12-07T06:01:47.008Z,80.25
2022-12-07T06:02:46.084Z,80.09
2022-12-07T06:03:45.982Z,80.72
2022-12-07T06:04:45.936Z,80.91
2022-12-07T06:05:45.943Z,80.33
2022-12-07T06:06:45.916Z,80.04
2022-12-07T06:07:45.956Z,80.44
2022-12-07T06:08:45.887Z,81.07
2022-12-07T06:09:45.884Z,80.23
2022-12-07T06:10:45.862Z,80.56
2022-12-07T06:11:45.835Z,81.11
2022-12-07T06:12:45.844Z,80.79
2022-12-07T06:13:47.444Z,80.95
2022-12-07T06:14:45.822Z,81.46
2022-12-07T06:15:45.806Z,81.74
2022-12-07T06:16:45.900Z,81.95
2022-12-07T06:17:45.764Z,81.36
2022-12-07T06:18:45.754Z,81.06
2022-12-07T06:19:45.733Z,81.07
2022-12-07T06:20:45.735Z,81.66
2022-12-07T06:21:45.737Z,81.78
2022-12-07T06:22:45.703Z,81.85
2022-12-07T06:23:45.696Z,80.61
2022-12-07T06:24:45.679Z,80.09
2022-12-07T06:25:45.654Z,80.08
2022-12-07T06:26:45.646Z,80.79
2022-12-07T06:27:45.652Z,80.14
2022-12-07T06:28:45.617Z,79.41
2022-12-07T06:29:45.611Z,80.05
2022-12-07T06:30:45.602Z,80.11
2022-12-07T06:31:45.652Z,80.01
2022-12-07T06:32:45.588Z,80.36
2022-12-07T06:33:45.584Z,80.83
2022-12-07T06:34:45.542Z,81.10
2022-12-07T06:35:45.526Z,81.21
2022-12-07T06:36:45.512Z,81.58
2022-12-07T06:37:45.510Z,81.64
2022-12-07T06:38:45.523Z,81.60
2022-12-07T06:39:45.501Z,81.13
2022-12-07T06:40:45.463Z,81.60
2022-12-07T06:41:45.442Z,81.73
2022-12-07T06:42:45.443Z,81.93
2022-12-07T06:43:45.423Z,82.13
2022-12-07T06:44:45.409Z,82.17
2022-12-07T06:45:45.470Z,82.14
2022-12-07T06:46:45.390Z,82.29
2022-12-07T06:47:45.996Z,82.36
2022-12-07T06:48:45.360Z,82.43
2022-12-07T06:49:45.350Z,82.32
2022-12-07T06:50:48.652Z,82.61
2022-12-07T06:51:46.372Z,82.58
2022-12-07T06:52:45.317Z,82.81
2022-12-07T06:53:45.283Z,82.62
2022-12-07T06:54:45.271Z,82.81
2022-12-07T06:55:45.270Z,82.51
2022-12-07T06:56:45.271Z,82.75
2022-12-07T06:57:45.282Z,83.03
2022-12-07T06:58:45.228Z,83.21
2022-12-07T06:59:45.200Z,82.92
2022-12-07T07:00:45.274Z,83.15
2022-12-07T07:01:45.293Z,83.49
2022-12-07T07:02:45.241Z,83.82
2022-12-07T07:03:45.191Z,84.13
2022-12-07T07:04:45.141Z,84.19
2022-12-07T07:05:45.130Z,84.34
2022-12-07T07:06:45.124Z,84.71
2022-12-07T07:08:05.245Z,85.07
2022-12-07T07:08:46.158Z,84.86
2022-12-07T07:09:45.092Z,84.75
2022-12-07T07:10:45.075Z,84.61
2022-12-07T07:11:45.069Z,84.59
2022-12-07T07:12:45.055Z,84.40
2022-12-07T07:13:45.021Z,84.03
2022-12-07T07:14:45.064Z,83.65
2022-12-07T07:15:44.999Z,83.57
2022-12-07T07:16:45.074Z,83.54
2022-12-07T07:17:44.974Z,83.72
2022-12-07T07:18:44.959Z,84.12
2022-12-07T07:19:44.940Z,84.13
2022-12-07T07:20:44.956Z,84.09
2022-12-07T07:21:44.920Z,84.08
2022-12-07T07:22:44.910Z,84.07
2022-12-07T07:23:44.898Z,84.03
2022-12-07T07:24:44.907Z,83.97
2022-12-07T07:25:44.868Z,83.85
2022-12-07T07:26:44.878Z,83.72
2022-12-07T07:27:44.840Z,84.09
2022-12-07T07:28:44.837Z,84.01
2022-12-07T07:29:44.808Z,83.92
2022-12-07T07:30:44.883Z,83.86
2022-12-07T07:31:44.789Z,83.78
2022-12-07T07:32:44.797Z,83.69
2022-12-07T07:33:44.759Z,83.67
2022-12-07T07:34:44.800Z,83.85
2022-12-07T07:35:44.738Z,83.96
2022-12-07T07:36:44.730Z,83.92
2022-12-07T07:37:44.711Z,83.80
2022-12-07T07:38:44.740Z,83.97
2022-12-07T07:39:44.699Z,84.14
2022-12-07T07:40:44.679Z,84.33
2022-12-07T07:41:44.657Z,84.29
2022-12-07T07:42:44.648Z,84.14
2022-12-07T07:43:44.627Z,84.26
2022-12-07T07:44:44.654Z,83.80
2022-12-07T07:45:44.673Z,83.77
2022-12-07T07:46:44.598Z,83.98
2022-12-07T07:47:44.577Z,83.99
2022-12-07T07:48:44.570Z,83.91
2022-12-07T07:49:47.956Z,84.01
2022-12-07T07:50:44.560Z,83.92
2022-12-07T07:51:44.541Z,84.32
2022-12-07T07:52:44.516Z,84.31
2022-12-07T07:53:44.506Z,83.76
2022-12-07T07:54:44.486Z,82.90
2022-12-07T07:55:44.480Z,82.93
2022-12-07T07:56:44.483Z,83.64
2022-12-07T07:57:48.340Z,83.79
2022-12-07T07:58:45.436Z,84.17
2022-12-07T07:59:44.427Z,84.11
2022-12-07T08:00:44.413Z,84.04
2022-12-07T08:01:44.463Z,83.86
2022-12-07T08:02:44.428Z,84.06
2022-12-07T08:03:44.376Z,84.12
2022-12-07T08:04:44.424Z,84.65
2022-12-07T08:05:44.355Z,85.05
2022-12-07T08:06:44.325Z,85.44
2022-12-07T08:07:44.409Z,85.66
2022-12-07T08:08:44.343Z,85.75
2022-12-07T08:09:44.297Z,85.42
2022-12-07T08:10:44.286Z,85.11
2022-12-07T08:11:44.274Z,84.95
2022-12-07T08:12:44.259Z,85.25
2022-12-07T08:13:44.244Z,85.50
2022-12-07T08:14:44.255Z,85.77
2022-12-07T08:15:44.238Z,85.84
2022-12-07T08:16:44.203Z,85.93
2022-12-07T08:17:44.195Z,85.60
2022-12-07T08:18:44.176Z,85.63
2022-12-07T08:19:44.165Z,85.76
2022-12-07T08:20:44.175Z,85.97
2022-12-07T08:21:44.143Z,85.96
2022-12-07T08:22:44.125Z,85.95
2022-12-07T08:23:44.119Z,85.62
2022-12-07T08:24:44.092Z,85.08
2022-12-07T08:25:44.088Z,84.36
2022-12-07T08:26:44.096Z,84.21
2022-12-07T08:27:44.062Z,83.98
2022-12-07T08:28:44.042Z,84.15
2022-12-07T08:29:44.033Z,83.88
2022-12-07T08:30:44.083Z,84.24
2022-12-07T08:31:44.086Z,84.54
2022-12-07T08:32:44.003Z,85.17
2022-12-07T08:33:43.984Z,85.41
2022-12-07T08:34:43.962Z,85.60
2022-12-07T08:35:43.961Z,85.75
2022-12-07T08:36:43.944Z,85.71
2022-12-07T08:37:43.930Z,85.96
2022-12-07T08:39:01.423Z,85.60
2022-12-07T08:39:44.902Z,85.60
2022-12-07T08:40:43.883Z,85.58
2022-12-07T08:41:43.872Z,85.39
2022-12-07T08:42:43.862Z,85.39
2022-12-07T08:43:43.881Z,84.47
2022-12-07T08:44:43.854Z,82.51
2022-12-07T08:45:43.820Z,81.36
2022-12-07T08:46:43.838Z,82.05
2022-12-07T08:47:43.792Z,82.31
2022-12-07T08:48:43.790Z,83.14
2022-12-07T08:49:43.762Z,80.20
2022-12-07T08:50:49.360Z,81.82
2022-12-07T08:51:44.741Z,81.57
2022-12-07T08:52:43.741Z,79.03
2022-12-07T08:53:43.722Z,77.71
2022-12-07T08:54:43.700Z,77.35
2022-12-07T08:55:43.690Z,77.76
2022-12-07T08:56:43.700Z,77.73
2022-12-07T08:57:43.661Z,77.88
2022-12-07T08:58:43.664Z,76.91
2022-12-07T08:59:43.628Z,76.59
2022-12-07T09:00:43.626Z,75.86
2022-12-07T09:01:43.640Z,75.96
2022-12-07T09:02:43.618Z,76.16
2022-12-07T09:03:43.588Z,75.33
2022-12-07T09:04:43.570Z,74.64
2022-12-07T09:05:43.581Z,75.03
2022-12-07T09:06:43.615Z,74.56
2022-12-07T09:07:43.559Z,74.04
2022-12-07T09:08:43.544Z,74.01
2022-12-07T09:09:43.507Z,73.64
2022-12-07T09:10:43.508Z,73.83
2022-12-07T09:11:43.481Z,73.97
2022-12-07T09:12:43.468Z,74.06
2022-12-07T09:13:43.448Z,73.70
2022-12-07T09:14:43.457Z,73.55
2022-12-07T09:15:43.458Z,73.53
2022-12-07T09:16:43.423Z,73.02
2022-12-07T09:17:43.398Z,73.14
2022-12-07T09:18:43.397Z,73.01
2022-12-07T09:19:43.371Z,72.63
2022-12-07T09:20:43.387Z,72.20
2022-12-07T09:21:43.360Z,71.68
2022-12-07T09:22:43.338Z,71.06
2022-12-07T09:23:43.317Z,71.07
2022-12-07T09:24:43.308Z,71.53
2022-12-07T09:25:43.298Z,70.42
2022-12-07T09:26:43.321Z,70.86
2022-12-07T09:27:43.266Z,70.90
2022-12-07T09:28:43.255Z,70.87
2022-12-07T09:29:43.236Z,70.04
2022-12-07T09:31:21.107Z,70.17
2022-12-07T09:31:44.289Z,69.96
2022-12-07T09:32:43.204Z,69.84
2022-12-07T09:33:43.196Z,69.49
2022-12-07T09:34:43.225Z,70.28
2022-12-07T09:35:43.166Z,69.69
2022-12-07T09:36:43.146Z,69.26
2022-12-07T09:37:43.195Z,69.44
2022-12-07T09:38:43.124Z,68.67
2022-12-07T09:39:49.424Z,68.44
2022-12-07T09:40:44.096Z,67.96
2022-12-07T09:41:43.096Z,68.27
2022-12-07T09:42:43.097Z,68.68
2022-12-07T09:43:43.107Z,68.43
2022-12-07T09:44:43.055Z,68.10
2022-12-07T09:45:47.108Z,68.22
2022-12-07T09:46:44.113Z,67.62
2022-12-07T09:47:43.031Z,67.80
2022-12-07T09:48:42.984Z,67.67
2022-12-07T09:49:43.011Z,68.14
2022-12-07T09:50:42.965Z,67.44
2022-12-07T09:51:42.966Z,66.86
2022-12-07T09:52:42.935Z,66.50
2022-12-07T09:53:42.935Z,66.45
2022-12-07T09:54:42.914Z,66.77
2022-12-07T09:55:42.924Z,66.31
2022-12-07T09:56:42.885Z,66.11
2022-12-07T09:57:42.877Z,65.73
2022-12-07T09:58:42.854Z,65.34
2022-12-07T09:59:42.856Z,65.39
2022-12-07T10:00:42.834Z,65.29
2022-12-07T10:01:42.923Z,65.38
2022-12-07T10:02:42.816Z,64.25
2022-12-07T10:03:42.802Z,64.01
2022-12-07T10:04:42.805Z,63.74
2022-12-07T10:05:42.776Z,64.21
2022-12-07T10:06:42.761Z,63.74
2022-12-07T10:07:42.856Z,64.07
2022-12-07T10:08:42.733Z,64.16
2022-12-07T10:09:42.723Z,64.46
2022-12-07T10:10:42.704Z,64.49
2022-12-07T10:11:42.702Z,64.71
2022-12-07T10:12:42.683Z,64.88
2022-12-07T10:13:42.701Z,65.09
2022-12-07T10:15:43.666Z,64.66
2022-12-07T10:16:42.747Z,64.87
2022-12-07T10:17:42.629Z,64.66
2022-12-07T10:18:42.610Z,65.16
2022-12-07T10:19:42.623Z,64.94
2022-12-07T10:20:42.582Z,65.19
2022-12-07T10:21:42.562Z,64.99
2022-12-07T10:22:42.569Z,64.99
2022-12-07T10:23:42.544Z,64.80
2022-12-07T10:24:42.532Z,64.54
2022-12-07T10:25:42.533Z,64.59
2022-12-07T10:26:42.501Z,64.51
2022-12-07T10:27:42.481Z,64.51
2022-12-07T10:28:42.664Z,64.53
2022-12-07T10:29:42.452Z,64.72
2022-12-07T10:30:42.449Z,64.60
2022-12-07T10:31:42.519Z,65.19
2022-12-07T10:32:42.420Z,65.03
2022-12-07T10:33:42.402Z,64.50
2022-12-07T10:34:46.178Z,64.58
2022-12-07T10:35:43.380Z,64.87
2022-12-07T10:36:42.367Z,64.98
2022-12-07T10:37:42.380Z,64.78
2022-12-07T10:38:42.345Z,64.77
2022-12-07T10:39:42.319Z,64.86
2022-12-07T10:40:46.442Z,64.32
2022-12-07T10:41:42.290Z,64.22
2022-12-07T10:42:42.298Z,64.38
2022-12-07T10:43:42.301Z,62.73
2022-12-07T10:44:42.328Z,62.78
2022-12-07T10:45:52.079Z,62.85
2022-12-07T10:46:43.254Z,63.12
2022-12-07T10:47:42.228Z,63.15
2022-12-07T10:48:42.208Z,62.31
2022-12-07T10:49:42.239Z,61.67
2022-12-07T10:50:42.189Z,61.31
2022-12-07T10:51:42.189Z,61.61
2022-12-07T10:52:42.151Z,61.49
2022-12-07T10:53:42.149Z,61.15
2022-12-07T10:54:42.132Z,61.48
2022-12-07T10:55:42.140Z,62.04
2022-12-07T10:56:42.109Z,61.69
2022-12-07T10:57:43.099Z,61.72
2022-12-07T10:58:42.079Z,61.81
2022-12-07T10:59:42.071Z,61.92
2022-12-07T11:00:42.110Z,62.16
2022-12-07T11:01:42.098Z,61.96
2022-12-07T11:02:42.051Z,61.07
2022-12-07T11:03:42.019Z,61.13
2022-12-07T11:04:41.998Z,61.25
2022-12-07T11:05:41.980Z,61.77
2022-12-07T11:06:41.969Z,61.53
2022-12-07T11:07:42.036Z,61.92
2022-12-07T11:08:41.938Z,62.02
2022-12-07T11:10:19.172Z,61.60
2022-12-07T11:10:42.918Z,61.61
2022-12-07T11:11:41.908Z,61.65
2022-12-07T11:12:41.898Z,60.97
2022-12-07T11:13:41.897Z,60.78
2022-12-07T11:14:41.877Z,61.13
2022-12-07T11:15:41.848Z,61.11
2022-12-07T11:16:41.904Z,61.40
2022-12-07T11:17:41.828Z,60.98
2022-12-07T11:18:41.818Z,61.27
2022-12-07T11:19:41.837Z,61.32
2022-12-07T11:20:41.791Z,61.37
2022-12-07T11:21:41.776Z,61.26
2022-12-07T11:22:41.767Z,61.31
2022-12-07T11:23:41.746Z,61.14
2022-12-07T11:24:41.741Z,61.01
2022-12-07T11:25:41.738Z,61.50
2022-12-07T11:26:41.708Z,61.86
2022-12-07T11:27:41.699Z,61.95
2022-12-07T11:28:41.690Z,60.98
2022-12-07T11:29:41.671Z,61.12
2022-12-07T11:30:41.674Z,62.05
2022-12-07T11:31:41.696Z,62.00
2022-12-07T11:32:41.658Z,61.63
2022-12-07T11:33:41.616Z,61.11
2022-12-07T11:34:41.610Z,60.61
2022-12-07T11:35:41.587Z,60.49
2022-12-07T11:36:41.586Z,60.72
2022-12-07T11:38:41.556Z,61.11
2022-12-07T11:39:41.536Z,60.91
2022-12-07T11:40:41.528Z,60.95
2022-12-07T11:41:41.517Z,61.14
2022-12-07T11:42:41.508Z,61.38
2022-12-07T11:43:41.516Z,61.15
2022-12-07T11:44:41.477Z,61.13
2022-12-07T11:45:41.456Z,61.61
2022-12-07T11:46:41.487Z,61.29
2022-12-07T11:47:41.426Z,61.48
2022-12-07T11:48:41.425Z,61.63
2022-12-07T11:49:41.435Z,61.95
2022-12-07T11:50:41.396Z,61.82
2022-12-07T11:51:41.397Z,61.76
2022-12-07T11:52:41.374Z,61.78
2022-12-07T11:53:41.355Z,61.97
2022-12-07T11:54:41.354Z,61.88
2022-12-07T11:55:41.344Z,62.07
2022-12-07T11:56:41.315Z,61.59
2022-12-07T11:57:41.296Z,61.68
2022-12-07T11:58:41.285Z,61.60
2022-12-07T11:59:41.276Z,61.53
2022-12-07T12:00:41.261Z,61.57
2022-12-07T12:01:41.314Z,61.38
2022-12-07T12:02:41.326Z,61.50
2022-12-07T12:03:41.265Z,61.84
2022-12-07T12:04:41.214Z,61.79
2022-12-07T12:05:41.197Z,62.22
2022-12-07T12:06:41.183Z,62.04
2022-12-07T12:09:42.180Z,62.36
2022-12-07T12:10:41.124Z,62.39
2022-12-07T12:11:41.262Z,62.14
2022-12-07T12:14:46.691Z,62.32
2022-12-07T12:15:42.065Z,62.24
2022-12-07T12:16:41.158Z,61.91
2022-12-07T12:17:41.034Z,62.21
2022-12-07T12:18:41.027Z,61.95
2022-12-07T12:19:41.030Z,61.95
2022-12-07T12:20:40.994Z,62.04
2022-12-07T12:21:40.983Z,62.02
2022-12-07T12:22:40.978Z,61.83
2022-12-07T12:23:40.954Z,61.34
2022-12-07T12:24:40.944Z,61.57
2022-12-07T12:25:40.981Z,61.16
2022-12-07T12:26:40.923Z,60.87
2022-12-07T12:27:40.909Z,60.28
2022-12-07T12:28:45.281Z,60.35
2022-12-07T12:29:41.887Z,59.67
2022-12-07T12:30:40.873Z,60.39
2022-12-07T12:31:40.960Z,59.42
2022-12-07T12:32:40.842Z,59.29
2022-12-07T12:33:40.823Z,59.19
2022-12-07T12:34:46.638Z,59.79
2022-12-07T12:35:41.801Z,59.26
2022-12-07T12:36:40.878Z,59.30
2022-12-07T12:37:40.803Z,59.37
2022-12-07T12:38:40.814Z,58.65
2022-12-07T12:39:40.753Z,58.32
2022-12-07T12:40:43.179Z,57.92
2022-12-07T12:41:41.722Z,57.82
2022-12-07T12:42:40.712Z,57.95
2022-12-07T12:43:40.712Z,57.86
2022-12-07T12:44:40.684Z,57.94
2022-12-07T12:45:40.692Z,57.68
2022-12-07T12:46:45.111Z,57.47
2022-12-07T12:47:41.641Z,57.61
2022-12-07T12:48:40.633Z,57.51
2022-12-07T12:49:40.653Z,57.61
2022-12-07T12:50:40.604Z,57.98
2022-12-07T12:51:40.596Z,58.73
2022-12-07T12:52:42.489Z,58.29
2022-12-07T12:53:41.561Z,58.46
2022-12-07T12:54:40.551Z,59.26
2022-12-07T12:55:40.567Z,58.97
2022-12-07T12:56:40.531Z,58.88
2022-12-07T12:57:40.511Z,59.15
2022-12-07T12:58:40.535Z,59.85